KBML Airport Information

Runway Information
Runway 18 Length 5200 ft width 100 ft
Elevation 1158 ft Threshold ft Heading 164
Runway 36 Length 5200 ft Width 100 ft
Elevation 1130 ft Threshold ft Heading 344
Airport Frequencies
Type ASOS Name ASOS Frequency 135.175 MHZ
Type RDO Name BANGOR RDO Frequency 122.35 MHZ
Type UNIC Name CTAF/UNICO Frequency 122.7 MHZ
Airport Navaids
Airport Weather Information & NOTAM
ADDS - METARS form results

(1014 UTC 29 June 2022)
Data provider http://aviationweather.gov/metar/data/
 
METAR text: KBML 290952Z AUTO 00000KT 1/4SM FG VV001 07/06 A3024 RMK AO2 SLP243 T00670061 $
Conditions at: KBML (BERLIN , NH, US) observed 0952 UTC 29 June 2022
Temperature: 6.7°C (44°F)
Dewpoint: 6.1°C (43°F) [RH = 96%]
Pressure (altimeter): 30.24 inches Hg (1024.1 mb)
[Sea-level pressure: 1024.3 mb]
Winds: calm
Visibility: 0.25 miles (0.40 km)
Ceiling: indefinite ceiling with vertical visibility of 100 feet AGL
Clouds: obscured sky
Weather: FG  (fog)
SOME DATA ABOVE MAY BE INACCURATE!!!
"$" is an indication the sensor requires maintenance

METAR text: KBML 290949Z AUTO 00000KT 1/2SM FG VV002 07/06 A3024 RMK AO2 $
Conditions at: KBML (BERLIN , NH, US) observed 0949 UTC 29 June 2022
Temperature: 7.0°C (45°F)
Dewpoint: 6.0°C (43°F) [RH = 93%]
Pressure (altimeter): 30.24 inches Hg (1024.1 mb)
Winds: calm
Visibility: 0.50 miles (0.80 km)
Ceiling: indefinite ceiling with vertical visibility of 200 feet AGL
Clouds: obscured sky
Weather: FG  (fog)
SOME DATA ABOVE MAY BE INACCURATE!!!
"$" is an indication the sensor requires maintenance

METAR text: KBML 290940Z AUTO 00000KT 1/4SM FG VV001 07/06 A3024 RMK AO2 T00670061 $
Conditions at: KBML (BERLIN , NH, US) observed 0940 UTC 29 June 2022
Temperature: 6.7°C (44°F)
Dewpoint: 6.1°C (43°F) [RH = 96%]
Pressure (altimeter): 30.24 inches Hg (1024.1 mb)
Winds: calm
Visibility: 0.25 miles (0.40 km)
Ceiling: indefinite ceiling with vertical visibility of 100 feet AGL
Clouds: obscured sky
Weather: FG  (fog)
SOME DATA ABOVE MAY BE INACCURATE!!!
"$" is an indication the sensor requires maintenance

METAR text: KBML 290921Z AUTO 00000KT M1/4SM FG VV001 07/06 A3024 RMK AO2 T00670061 $
Conditions at: KBML (BERLIN , NH, US) observed 0921 UTC 29 June 2022
Temperature: 6.7°C (44°F)
Dewpoint: 6.1°C (43°F) [RH = 96%]
Pressure (altimeter): 30.24 inches Hg (1024.1 mb)
Winds: calm
Visibility: 0.25 miles (0.40 km)
Ceiling: indefinite ceiling with vertical visibility of 100 feet AGL
Clouds: obscured sky
Weather: FG  (fog)
SOME DATA ABOVE MAY BE INACCURATE!!!
"$" is an indication the sensor requires maintenance



Are you looking for a new career in flight simulation?

We are waiting for you, join the Aerocaribbean Virtual family.